Latest Coastal Weather Observations for Broome

IDW60701

Issued at 11:02 pm WST Saturday 30 April 2016 (issued every 10 minutes, with the page automatically refreshed every 10 minutes)

About coastal observations | Map of coastal stations | Coastal observations for WA | Marine services | Other Formats
Station Details ID: 003003 Name: BROOME AIRPORT Lat: -17.95 Lon: 122.24 Height: 7.42 m
Data from the previous 72 hours. | See also: Recent months at Broome
Date/Time
WST
Temp

°C
Wind Pressure Rain
since 9am
mm
Weather Cloud Vis
km
Sea
Height
m
Swell
Dir
 
Speed
knots
Gust
knots
hPa Trend Height
m
Period
s
Dir
30/11:00pm 25.3 CALM 0 0 1011.8 - 0.0 - - 10 - - - -
30/10:30pm 25.6 SW 1 3 1012.1 - 0.0 - - 10 - - - -
30/10:00pm 27.5 SW 3 4 1012.1 - 0.0 - - 10 - - - -
30/09:30pm 28.5 SW 4 5 1012.2 - 0.0 - - 10 - - - -
30/09:00pm 28.6 SW 4 6 1012.1 - 0.0 - - 10 - - - -
30/08:30pm 28.8 WSW 4 6 1011.9 - 0.0 - - 10 - - - -
30/08:00pm 28.8 S 4 6 1011.8 - 0.0 - - 10 - - - -
30/07:30pm 29.2 WSW 7 10 1011.5 - 0.0 - - 10 - - - -
30/07:00pm 29.3 WSW 8 10 1011.2 - 0.0 - - 10 - - - -
30/06:30pm 29.4 WSW 8 10 1010.9 - 0.0 - - 10 - - - -
30/06:00pm 29.6 WSW 8 11 1010.6 - 0.0 - - 10 - - - -
30/05:30pm 29.9 WSW 9 13 1010.4 - 0.0 - - 10 - - - -
30/05:00pm 30.4 WSW 11 14 1010.0 - 0.0 - - 10 - - - -
30/04:30pm 31.0 WSW 11 14 1009.8 - 0.0 - - 10 - - - -
30/04:00pm 31.4 WSW 12 16 1009.7 - 0.0 - - 10 - - - -
30/03:30pm 31.4 WSW 12 16 1009.8 - 0.0 - - 10 - - - -
30/03:00pm 31.7 W 12 16 1009.6 - 0.0 - - 10 - - - -
30/02:30pm 32.2 W 11 14 1009.8 - 0.0 - - 10 - - - -
30/02:00pm 32.5 W 11 14 1010.0 - 0.0 - Partly cloudy 10 - - - -
30/01:30pm 32.4 W 10 14 1010.4 - 0.0 - - 10 - - - -
30/01:00pm 31.9 W 9 11 1010.7 - 0.0 - - 10 - - - -
30/12:30pm 32.3 W 8 11 1011.3 - 0.0 - - 10 - - - -
30/12:00pm 32.2 SW 7 10 1011.6 - 0.0 - - 10 - - - -
30/11:30am 31.9 SW 7 11 1012.1 - 0.0 - - 10 - - - -
30/11:00am 31.1 S 7 11 1012.6 - 0.0 - - 10 - - - -
30/10:30am 30.9 S 8 12 1012.9 - 0.0 - - 10 - - - -
30/10:00am 30.3 SSE 8 11 1013.3 - 0.0 - Partly cloudy 10 - - - -
30/09:30am 29.4 SSE 7 11 1013.5 - 0.0 - - 10 - - - -
30/09:00am 28.4 SSE 7 9 1013.3 - 0.0 - Partly cloudy 10 - - - -
30/08:30am 27.7 SE 7 11 1013.3 - 0.0 - Partly cloudy 10 - - - -
30/08:00am 27.3 ESE 4 6 1013.0 - 0.0 - Partly cloudy 10 - - - -
30/07:30am 25.2 N 2 5 1012.9 - 0.0 - Partly cloudy 10 - - - -
30/07:00am 24.1 CALM 0 0 1012.6 - 0.0 - Partly cloudy 10 - - - -
30/06:30am 22.8 CALM 0 0 1012.3 - 0.0 - Partly cloudy 10 - - - -
30/06:00am 22.7 CALM 0 0 1011.9 - 0.0 - - 10 - - - -
30/05:30am 22.8 CALM 0 0 1011.8 - 0.0 - - 10 - - - -
30/05:00am 22.8 CALM 0 0 1011.6 - 0.0 - - 10 - - - -
30/04:30am 23.2 CALM 0 0 1011.4 - 0.0 - - 10 - - - -
30/04:00am 23.5 CALM 0 0 1011.3 - 0.0 - - 10 - - - -
30/03:30am 23.3 N 2 4 1011.2 - 0.0 - - 10 - - - -
30/03:00am 23.7 CALM 0 0 1010.9 - 0.0 - - 10 - - - -
30/02:30am 24.0 CALM 0 0 1011.0 - 0.0 - - 10 - - - -
30/02:00am 27.2 SW 4 5 1011.1 - 0.0 - - 10 - - - -
30/01:30am 27.4 SW 3 4 1011.1 - 0.0 - - 10 - - - -
30/01:00am 27.8 SW 4 7 1011.2 - 0.0 - - 10 - - - -
30/12:30am 27.8 SW 5 6 1011.4 - 0.0 - - 10 - - - -
30/12:00am 27.7 SW 4 5 1011.4 - 0.0 - - 10 - - - -
 
Date/Time
WST
Temp

°C
Wind Pressure Rain
since 9am
mm
Weather Cloud Vis
km
Sea
Height
m
Swell
Dir
 
Speed
knots
Gust
knots
hPa Trend Height
m
Period
s
Dir
29/11:30pm 28.0 WSW 4 5 1011.7 - 0.0 - - 10 - - - -
29/11:00pm 28.2 SW 4 5 1012.0 - 0.0 - - 10 - - - -
29/10:30pm 28.4 SW 4 6 1012.2 - 0.0 - - 10 - - - -
29/10:00pm 28.5 W 5 6 1012.3 - 0.0 - - 10 - - - -
29/09:30pm 28.6 WSW 5 6 1012.5 - 0.0 - - 10 - - - -
29/09:00pm 28.8 WSW 5 6 1012.5 - 0.0 - - 10 - - - -
29/08:30pm 28.9 SW 6 7 1012.5 - 0.0 - - 10 - - - -
29/08:00pm 29.0 WSW 6 9 1012.2 - 0.0 - - 10 - - - -
29/07:30pm 29.2 SW 7 10 1012.2 - 0.0 - - 10 - - - -
29/07:00pm 29.3 WSW 7 10 1011.6 - 0.0 - - 10 - - - -
29/06:30pm 29.5 WSW 7 9 1011.3 - 0.0 - - 10 - - - -
29/06:00pm 29.7 WSW 9 11 1011.0 - 0.0 - - 10 - - - -
29/05:30pm 30.0 WSW 9 13 1011.0 - 0.0 - - 10 - - - -
29/05:00pm 30.8 W 9 12 1010.8 - 0.0 - - 10 - - - -
29/04:30pm 31.1 W 11 15 1010.6 - 0.0 - - 10 - - - -
29/04:00pm 31.4 WSW 12 16 1010.4 - 0.0 - - 10 - - - -
29/03:30pm 31.6 WSW 12 15 1010.2 - 0.0 - - 10 - - - -
29/03:00pm 32.2 WSW 12 15 1010.0 - 0.0 - - 10 - - - -
29/02:30pm 32.1 WSW 12 16 1010.0 - 0.0 - - 10 - - - -
29/02:00pm 32.2 WSW 11 16 1010.1 - 0.0 - - 10 - - - -
29/01:30pm 32.5 W 11 15 1010.3 - 0.0 - - 10 - - - -
29/01:00pm 32.7 WSW 12 15 1010.5 - 0.0 - - 10 - - - -
29/12:30pm 32.5 W 12 16 1010.6 - 0.0 - Mostly clear 10 - - - -
29/12:00pm 32.5 W 11 13 1010.7 - 0.0 - Mostly clear 10 - - - -
29/11:30am 32.5 WSW 12 16 1011.3 - 0.0 - - 10 - - - -
29/11:00am 32.1 WSW 10 14 1011.5 - 0.0 - - 10 - - - -
29/10:30am 32.0 W 9 13 1012.0 - 0.0 - - 10 - - - -
29/10:00am 31.9 W 9 13 1012.2 - 0.0 - - 10 - - - -
29/09:30am 32.0 W 9 13 1012.4 - 0.0 - - 10 - - - -
29/09:00am 31.5 W 9 11 1012.4 - 0.0 - - 10 - - - -
29/08:30am 31.0 W 8 12 1012.2 - 0.0 - - 10 - - - -
29/08:00am 30.7 W 8 11 1011.9 - 0.0 - - 10 - - - -
29/07:30am 27.7 CALM 0 0 1011.7 - 0.0 - - 10 - - - -
29/07:00am 24.1 CALM 0 0 1011.6 - 0.0 - - 10 - - - -
29/06:30am 22.1 CALM 0 0 1011.5 - 0.0 - - 10 - - - -
29/06:00am 21.9 CALM 0 0 1011.1 - 0.0 - - 10 - - - -
29/05:30am 22.1 CALM 0 0 1011.0 - 0.0 - - 10 - - - -
29/05:00am 22.7 W 2 4 1010.7 - 0.0 - - 10 - - - -
29/04:30am 22.5 CALM 0 0 1010.7 - 0.0 - - 10 - - - -
29/04:00am 22.4 CALM 0 0 1010.6 - 0.0 - - 10 - - - -
29/03:30am 22.6 NNE 3 4 1010.4 - 0.0 - - 10 - - - -
29/03:00am 23.0 CALM 0 0 1010.2 - 0.0 - - 10 - - - -
29/02:30am 24.3 W 3 4 1010.3 - 0.0 - - 10 - - - -
29/02:00am 28.1 W 4 5 1010.3 - 0.0 - - 10 - - - -
29/01:30am 28.1 W 5 6 1010.3 - 0.0 - - 10 - - - -
29/01:00am 28.1 W 5 6 1010.5 - 0.0 - - 10 - - - -
29/12:30am 28.1 W 5 6 1010.7 - 0.0 - - 10 - - - -
29/12:00am 28.3 W 5 5 1010.9 - 0.0 - - 10 - - - -
 
Date/Time
WST
Temp

°C
Wind Pressure Rain
since 9am
mm
Weather Cloud Vis
km
Sea
Height
m
Swell
Dir
 
Speed
knots
Gust
knots
hPa Trend Height
m
Period
s
Dir
28/11:30pm 28.4 WNW 5 6 1011.1 - 0.0 - Partly cloudy 10 - - - -
28/11:00pm 28.6 WNW 5 6 1011.3 - 0.0 - Partly cloudy 10 - - - -
28/10:30pm 28.1 WNW 5 6 1011.6 - 0.0 - Partly cloudy 10 - - - -
28/10:00pm 27.8 WNW 3 4 1011.6 - 0.0 - - 10 - - - -
28/09:30pm 28.1 W 4 5 1011.6 - 0.0 - - 10 - - - -
28/09:00pm 28.7 W 4 6 1011.4 - 0.0 - - 10 - - - -
28/08:30pm 29.1 WSW 5 7 1011.6 - 0.0 - - 10 - - - -
28/08:00pm 29.4 W 6 8 1011.4 - 0.0 - - 10 - - - -
28/07:30pm 29.5 WSW 6 8 1011.1 - 0.0 - - 10 - - - -
28/07:00pm 29.8 W 7 10 1010.7 - 0.0 - - 10 - - - -
28/06:30pm 29.8 WSW 8 11 1010.3 - 0.0 - - 10 - - - -
28/06:00pm 29.8 SW 8 13 1009.9 - 0.0 - - 10 - - - -
28/05:30pm 30.3 W 10 14 1009.7 - 0.0 - Mostly clear 10 - - - -
28/05:00pm 30.9 W 12 16 1009.4 - 0.0 - - 10 - - - -
28/04:30pm 31.3 W 12 16 1009.4 - 0.0 - Mostly clear 10 - - - -
28/04:00pm 31.1 W 12 15 1009.1 - 0.0 - - 10 - - - -
28/03:30pm 30.8 WSW 15 19 1009.0 - 0.0 - - 10 - - - -
28/03:00pm 30.9 WSW 14 19 1008.9 - 0.0 - - 10 - - - -
28/02:30pm 31.2 W 13 17 1009.0 - 0.0 - - 10 - - - -
28/02:00pm 31.3 W 13 18 1009.0 - 0.0 - - 10 - - - -
28/01:30pm 31.6 WSW 13 17 1009.2 - 0.0 - - 10 - - - -
28/01:00pm 32.0 WSW 12 16 1009.4 - 0.0 - Mostly clear 10 - - - -
28/12:30pm 32.2 WSW 11 15 1009.8 - 0.0 - Mostly clear 10 - - - -
28/12:00pm 32.0 WSW 12 16 1010.0 - 0.0 - Mostly clear 10 - - - -
28/11:30am 32.0 WSW 10 13 1010.5 - 0.0 - Mostly clear 10 - - - -
28/11:00am 31.8 SSW 10 13 1011.0 - 0.0 - Mostly clear 10 - - - -
28/10:30am 31.0 SSW 9 14 1011.4 - 0.0 - Mostly clear 10 - - - -
28/10:00am 30.3 S 9 12 1011.7 - 0.0 - Mostly clear 10 - - - -
28/09:30am 29.6 SSE 6 9 1011.8 - 0.0 - - 10 - - - -
28/09:00am 28.9 SSE 6 9 1011.7 - 0.0 - - 10 - - - -
28/08:30am 27.9 S 5 7 1011.5 - 0.0 - - 10 - - - -
28/08:00am 26.7 SE 5 7 1011.5 - 0.0 - - 10 - - - -
28/07:30am 26.4 ENE 2 6 1011.3 - 0.0 - - 10 - - - -
28/07:00am 23.9 CALM 0 0 1011.1 - 0.0 - - 10 - - - -
28/06:30am 21.5 CALM 0 0 1010.7 - 0.0 - - 10 - - - -
28/06:00am 21.1 N 3 5 1010.4 - 0.0 - - 10 - - - -
28/05:30am 21.1 CALM 0 0 1010.1 - 0.0 - - 10 - - - -
28/05:00am 22.0 CALM 0 0 1009.9 - 0.0 - - 10 - - - -
28/04:30am 22.1 CALM 0 0 1009.8 - 0.0 - - 10 - - - -
28/04:00am 21.8 CALM 0 0 1009.6 - 0.0 - - 10 - - - -
28/03:30am 21.4 N 2 3 1009.6 - 0.0 - - 10 - - - -
28/03:00am 21.7 NNE 3 5 1009.4 - 0.0 - - 10 - - - -
28/02:30am 22.2 N 3 4 1009.6 - 0.0 - - 10 - - - -
28/02:00am 22.3 NNE 4 6 1009.8 - 0.0 - - 10 - - - -
28/01:30am 23.9 CALM 0 0 1009.9 - 0.0 - - 10 - - - -
28/01:00am 23.1 E 1 3 1010.2 - 0.0 - - 10 - - - -
28/12:30am 24.2 CALM 0 0 1010.3 - 0.0 - - 10 - - - -
28/12:00am 23.6 NNW 1 5 1010.6 - 0.0 - - 10 - - - -
 
Date/Time
WST
Temp

°C
Wind Pressure Rain
since 9am
mm
Weather Cloud Vis
km
Sea
Height
m
Swell
Dir
 
Speed
knots
Gust
knots
hPa Trend Height
m
Period
s
Dir
27/11:30pm 24.7 NNW 4 5 1010.7 - 0.0 - - 10 - - - -

Other Formats:

Comma delimited format used in spreadsheet applications
http://www.bom.gov.au/fwo/IDW60701/IDW60701.94203.axf

JavaScript Object Notation format (JSON) in row-major order
http://www.bom.gov.au/fwo/IDW60701/IDW60701.94203.json